sensor_id;sensor_type;location;lat;lon;timestamp;P1;durP1;ratioP1;P2;durP2;ratioP2
84050;SDS011;74137;50.136;19.040;2024-03-08T00:03:22;44.40;;;24.40;;
84050;SDS011;74137;50.136;19.040;2024-03-08T00:06:03;42.40;;;24.90;;
84050;SDS011;74137;50.136;19.040;2024-03-08T00:10:52;46.00;;;25.10;;
84050;SDS011;74137;50.136;19.040;2024-03-08T00:13:58;43.40;;;25.20;;
84050;SDS011;74137;50.136;19.040;2024-03-08T00:16:52;47.10;;;23.50;;
84050;SDS011;74137;50.136;19.040;2024-03-08T00:24:03;43.90;;;22.50;;
84050;SDS011;74137;50.136;19.040;2024-03-08T00:27:41;44.40;;;23.60;;
84050;SDS011;74137;50.136;19.040;2024-03-08T00:31:41;43.80;;;24.60;;
84050;SDS011;74137;50.136;19.040;2024-03-08T00:35:36;44.90;;;24.60;;
84050;SDS011;74137;50.136;19.040;2024-03-08T00:55:42;38.80;;;24.40;;
84050;SDS011;74137;50.136;19.040;2024-03-08T00:59:08;38.10;;;22.10;;
84050;SDS011;74137;50.136;19.040;2024-03-08T01:02:42;44.70;;;24.10;;
84050;SDS011;74137;50.136;19.040;2024-03-08T01:05:52;44.40;;;24.90;;
84050;SDS011;74137;50.136;19.040;2024-03-08T01:09:11;41.90;;;22.90;;
84050;SDS011;74137;50.136;19.040;2024-03-08T01:12:08;37.50;;;21.00;;
84050;SDS011;74137;50.136;19.040;2024-03-08T01:20:07;39.60;;;21.00;;
84050;SDS011;74137;50.136;19.040;2024-03-08T01:23:37;38.50;;;18.40;;
84050;SDS011;74137;50.136;19.040;2024-03-08T01:26:45;38.70;;;22.50;;
84050;SDS011;74137;50.136;19.040;2024-03-08T01:29:53;39.50;;;22.20;;
84050;SDS011;74137;50.136;19.040;2024-03-08T01:33:06;38.80;;;21.40;;
84050;SDS011;74137;50.136;19.040;2024-03-08T01:35:56;39.70;;;21.20;;
84050;SDS011;74137;50.136;19.040;2024-03-08T01:39:43;42.80;;;22.50;;
84050;SDS011;74137;50.136;19.040;2024-03-08T01:43:17;45.00;;;22.80;;
84050;SDS011;74137;50.136;19.040;2024-03-08T01:49:43;43.60;;;22.60;;
84050;SDS011;74137;50.136;19.040;2024-03-08T01:53:27;34.70;;;20.70;;
84050;SDS011;74137;50.136;19.040;2024-03-08T02:09:24;38.00;;;23.80;;
84050;SDS011;74137;50.136;19.040;2024-03-08T02:12:49;38.60;;;21.60;;
84050;SDS011;74137;50.136;19.040;2024-03-08T02:16:07;36.30;;;19.70;;
84050;SDS011;74137;50.136;19.040;2024-03-08T02:22:39;35.60;;;19.10;;
84050;SDS011;74137;50.136;19.040;2024-03-08T02:26:25;41.30;;;22.30;;
84050;SDS011;74137;50.136;19.040;2024-03-08T02:30:25;33.60;;;18.90;;
84050;SDS011;74137;50.136;19.040;2024-03-08T02:33:44;36.30;;;18.90;;
84050;SDS011;74137;50.136;19.040;2024-03-08T02:37:40;39.20;;;21.00;;
84050;SDS011;74137;50.136;19.040;2024-03-08T02:53:25;36.00;;;22.80;;
84050;SDS011;74137;50.136;19.040;2024-03-08T02:57:08;36.50;;;20.40;;
84050;SDS011;74137;50.136;19.040;2024-03-08T03:00:40;34.40;;;21.40;;
84050;SDS011;74137;50.136;19.040;2024-03-08T03:03:40;28.70;;;17.10;;
84050;SDS011;74137;50.136;19.040;2024-03-08T03:06:37;34.30;;;18.80;;
84050;SDS011;74137;50.136;19.040;2024-03-08T03:09:34;35.90;;;19.50;;
84050;SDS011;74137;50.136;19.040;2024-03-08T03:12:48;34.50;;;20.50;;
84050;SDS011;74137;50.136;19.040;2024-03-08T03:16:35;37.60;;;17.90;;
84050;SDS011;74137;50.136;19.040;2024-03-08T03:20:06;31.30;;;17.80;;
84050;SDS011;74137;50.136;19.040;2024-03-08T03:23:08;29.90;;;17.10;;
84050;SDS011;74137;50.136;19.040;2024-03-08T03:26:52;34.70;;;18.70;;
84050;SDS011;74137;50.136;19.040;2024-03-08T03:30:17;34.90;;;18.90;;
84050;SDS011;74137;50.136;19.040;2024-03-08T03:33:49;32.80;;;18.30;;
84050;SDS011;74137;50.136;19.040;2024-03-08T03:37:41;31.20;;;17.90;;
84050;SDS011;74137;50.136;19.040;2024-03-08T03:41:17;29.40;;;16.80;;
84050;SDS011;74137;50.136;19.040;2024-03-08T03:44:36;29.20;;;16.40;;
84050;SDS011;74137;50.136;19.040;2024-03-08T03:48:08;27.20;;;15.70;;
84050;SDS011;74137;50.136;19.040;2024-03-08T03:53:17;32.90;;;19.40;;
84050;SDS011;74137;50.136;19.040;2024-03-08T03:57:23;34.20;;;19.30;;
84050;SDS011;74137;50.136;19.040;2024-03-08T04:11:31;30.10;;;18.90;;
84050;SDS011;74137;50.136;19.040;2024-03-08T04:14:30;29.40;;;18.70;;
84050;SDS011;74137;50.136;19.040;2024-03-08T04:18:07;29.30;;;17.70;;
84050;SDS011;74137;50.136;19.040;2024-03-08T04:21:52;28.00;;;16.60;;
84050;SDS011;74137;50.136;19.040;2024-03-08T04:24:47;32.20;;;18.20;;
84050;SDS011;74137;50.136;19.040;2024-03-08T04:27:47;27.60;;;15.30;;
84050;SDS011;74137;50.136;19.040;2024-03-08T04:30:59;26.00;;;13.70;;
84050;SDS011;74137;50.136;19.040;2024-03-08T04:35:47;31.60;;;19.00;;
84050;SDS011;74137;50.136;19.040;2024-03-08T04:39:30;29.80;;;17.90;;
84050;SDS011;74137;50.136;19.040;2024-03-08T04:46:46;33.00;;;19.10;;
84050;SDS011;74137;50.136;19.040;2024-03-08T04:50:09;25.30;;;14.10;;
84050;SDS011;74137;50.136;19.040;2024-03-08T04:52:39;31.50;;;16.70;;
84050;SDS011;74137;50.136;19.040;2024-03-08T04:55:12;29.90;;;17.40;;
84050;SDS011;74137;50.136;19.040;2024-03-08T04:58:12;27.50;;;16.30;;
84050;SDS011;74137;50.136;19.040;2024-03-08T05:00:47;30.50;;;18.00;;
84050;SDS011;74137;50.136;19.040;2024-03-08T05:03:22;30.70;;;17.90;;
84050;SDS011;74137;50.136;19.040;2024-03-08T05:05:56;32.20;;;18.10;;
84050;SDS011;74137;50.136;19.040;2024-03-08T05:09:04;33.40;;;19.20;;
84050;SDS011;74137;50.136;19.040;2024-03-08T05:11:45;31.80;;;18.70;;
84050;SDS011;74137;50.136;19.040;2024-03-08T05:14:18;26.20;;;14.90;;
84050;SDS011;74137;50.136;19.040;2024-03-08T05:17:01;30.40;;;19.00;;
84050;SDS011;74137;50.136;19.040;2024-03-08T05:19:43;30.60;;;16.20;;
84050;SDS011;74137;50.136;19.040;2024-03-08T05:22:53;30.70;;;18.00;;
84050;SDS011;74137;50.136;19.040;2024-03-08T05:25:40;31.40;;;18.60;;
84050;SDS011;74137;50.136;19.040;2024-03-08T05:28:48;33.10;;;19.50;;
84050;SDS011;74137;50.136;19.040;2024-03-08T05:33:52;34.20;;;18.60;;
84050;SDS011;74137;50.136;19.040;2024-03-08T05:37:04;34.30;;;19.70;;
84050;SDS011;74137;50.136;19.040;2024-03-08T05:40:30;29.10;;;16.80;;
84050;SDS011;74137;50.136;19.040;2024-03-08T05:44:13;25.80;;;15.10;;
84050;SDS011;74137;50.136;19.040;2024-03-08T05:47:26;29.60;;;17.90;;
84050;SDS011;74137;50.136;19.040;2024-03-08T05:50:43;31.30;;;19.70;;
84050;SDS011;74137;50.136;19.040;2024-03-08T05:54:10;28.20;;;15.80;;
84050;SDS011;74137;50.136;19.040;2024-03-08T05:56:45;32.00;;;19.40;;
84050;SDS011;74137;50.136;19.040;2024-03-08T05:59:32;32.90;;;20.00;;
84050;SDS011;74137;50.136;19.040;2024-03-08T06:03:10;27.30;;;17.10;;
84050;SDS011;74137;50.136;19.040;2024-03-08T06:06:51;31.30;;;18.00;;
84050;SDS011;74137;50.136;19.040;2024-03-08T06:10:10;27.40;;;15.70;;
84050;SDS011;74137;50.136;19.040;2024-03-08T06:13:52;26.00;;;16.40;;
84050;SDS011;74137;50.136;19.040;2024-03-08T06:17:24;28.70;;;17.20;;
84050;SDS011;74137;50.136;19.040;2024-03-08T06:20:03;29.30;;;17.00;;
84050;SDS011;74137;50.136;19.040;2024-03-08T06:23:09;27.80;;;17.10;;
84050;SDS011;74137;50.136;19.040;2024-03-08T06:26:12;31.70;;;17.90;;
84050;SDS011;74137;50.136;19.040;2024-03-08T06:29:32;32.60;;;19.30;;
84050;SDS011;74137;50.136;19.040;2024-03-08T06:35:07;28.50;;;17.50;;
84050;SDS011;74137;50.136;19.040;2024-03-08T06:38:38;33.10;;;20.10;;
84050;SDS011;74137;50.136;19.040;2024-03-08T06:41:47;28.90;;;18.80;;
84050;SDS011;74137;50.136;19.040;2024-03-08T06:45:17;30.20;;;19.20;;
84050;SDS011;74137;50.136;19.040;2024-03-08T06:48:50;28.30;;;16.70;;
84050;SDS011;74137;50.136;19.040;2024-03-08T06:52:26;32.60;;;17.90;;
84050;SDS011;74137;50.136;19.040;2024-03-08T06:55:39;32.70;;;19.20;;
84050;SDS011;74137;50.136;19.040;2024-03-08T06:59:03;30.20;;;18.80;;
84050;SDS011;74137;50.136;19.040;2024-03-08T07:02:41;28.00;;;16.60;;
84050;SDS011;74137;50.136;19.040;2024-03-08T07:06:28;28.50;;;17.10;;
84050;SDS011;74137;50.136;19.040;2024-03-08T07:10:00;28.10;;;15.60;;
84050;SDS011;74137;50.136;19.040;2024-03-08T07:13:05;30.10;;;18.40;;
84050;SDS011;74137;50.136;19.040;2024-03-08T07:16:46;29.90;;;17.20;;
84050;SDS011;74137;50.136;19.040;2024-03-08T07:20:28;36.00;;;21.10;;
84050;SDS011;74137;50.136;19.040;2024-03-08T07:24:11;33.20;;;19.70;;
84050;SDS011;74137;50.136;19.040;2024-03-08T07:28:14;32.80;;;19.30;;
84050;SDS011;74137;50.136;19.040;2024-03-08T07:31:32;28.10;;;18.30;;
84050;SDS011;74137;50.136;19.040;2024-03-08T07:34:50;27.90;;;17.50;;
84050;SDS011;74137;50.136;19.040;2024-03-08T07:38:33;29.80;;;16.30;;
84050;SDS011;74137;50.136;19.040;2024-03-08T07:42:20;28.10;;;17.60;;
84050;SDS011;74137;50.136;19.040;2024-03-08T07:45:46;27.50;;;17.50;;
84050;SDS011;74137;50.136;19.040;2024-03-08T07:49:33;28.50;;;15.70;;
84050;SDS011;74137;50.136;19.040;2024-03-08T07:53:22;27.80;;;16.50;;
84050;SDS011;74137;50.136;19.040;2024-03-08T07:56:31;29.20;;;18.30;;
84050;SDS011;74137;50.136;19.040;2024-03-08T08:00:19;31.90;;;19.10;;
84050;SDS011;74137;50.136;19.040;2024-03-08T08:03:42;29.80;;;18.90;;
84050;SDS011;74137;50.136;19.040;2024-03-08T08:07:37;32.00;;;21.40;;
84050;SDS011;74137;50.136;19.040;2024-03-08T08:11:17;33.70;;;20.80;;
84050;SDS011;74137;50.136;19.040;2024-03-08T08:14:47;29.30;;;18.90;;
84050;SDS011;74137;50.136;19.040;2024-03-08T08:18:02;30.60;;;18.50;;
84050;SDS011;74137;50.136;19.040;2024-03-08T08:22:12;31.40;;;19.30;;
84050;SDS011;74137;50.136;19.040;2024-03-08T08:25:43;33.30;;;18.80;;
84050;SDS011;74137;50.136;19.040;2024-03-08T08:29:46;30.00;;;17.00;;
84050;SDS011;74137;50.136;19.040;2024-03-08T08:33:03;30.70;;;20.20;;
84050;SDS011;74137;50.136;19.040;2024-03-08T08:36:37;30.90;;;20.10;;
84050;SDS011;74137;50.136;19.040;2024-03-08T08:40:25;31.60;;;21.20;;
84050;SDS011;74137;50.136;19.040;2024-03-08T08:44:11;29.40;;;18.70;;
84050;SDS011;74137;50.136;19.040;2024-03-08T08:47:58;33.00;;;18.30;;
84050;SDS011;74137;50.136;19.040;2024-03-08T08:51:51;32.40;;;19.70;;
84050;SDS011;74137;50.136;19.040;2024-03-08T08:56:08;26.30;;;16.90;;
84050;SDS011;74137;50.136;19.040;2024-03-08T08:59:12;32.20;;;20.90;;
84050;SDS011;74137;50.136;19.040;2024-03-08T09:05:30;27.30;;;17.60;;
84050;SDS011;74137;50.136;19.040;2024-03-08T09:09:06;33.70;;;19.80;;
84050;SDS011;74137;50.136;19.040;2024-03-08T09:12:53;29.40;;;19.20;;
84050;SDS011;74137;50.136;19.040;2024-03-08T09:16:48;31.10;;;19.70;;
84050;SDS011;74137;50.136;19.040;2024-03-08T09:20:47;35.70;;;23.20;;
84050;SDS011;74137;50.136;19.040;2024-03-08T09:24:27;35.10;;;22.90;;
84050;SDS011;74137;50.136;19.040;2024-03-08T09:28:35;33.70;;;22.40;;
84050;SDS011;74137;50.136;19.040;2024-03-08T09:32:44;36.00;;;23.00;;
84050;SDS011;74137;50.136;19.040;2024-03-08T09:36:59;31.10;;;18.80;;
84050;SDS011;74137;50.136;19.040;2024-03-08T09:41:34;31.80;;;20.40;;
84050;SDS011;74137;50.136;19.040;2024-03-08T09:45:43;31.10;;;19.60;;
84050;SDS011;74137;50.136;19.040;2024-03-08T10:00:19;28.50;;;20.10;;
84050;SDS011;74137;50.136;19.040;2024-03-08T10:02:52;24.70;;;17.00;;
84050;SDS011;74137;50.136;19.040;2024-03-08T10:05:22;27.60;;;17.00;;
84050;SDS011;74137;50.136;19.040;2024-03-08T10:07:53;26.90;;;17.70;;
84050;SDS011;74137;50.136;19.040;2024-03-08T10:10:21;27.10;;;18.30;;
84050;SDS011;74137;50.136;19.040;2024-03-08T10:15:19;27.00;;;18.30;;
84050;SDS011;74137;50.136;19.040;2024-03-08T10:17:48;28.20;;;18.90;;
84050;SDS011;74137;50.136;19.040;2024-03-08T10:20:17;24.80;;;14.70;;
84050;SDS011;74137;50.136;19.040;2024-03-08T10:22:47;31.60;;;20.00;;
84050;SDS011;74137;50.136;19.040;2024-03-08T10:25:35;26.70;;;17.50;;
84050;SDS011;74137;50.136;19.040;2024-03-08T10:28:09;29.20;;;20.20;;
84050;SDS011;74137;50.136;19.040;2024-03-08T10:30:37;29.50;;;20.80;;
84050;SDS011;74137;50.136;19.040;2024-03-08T10:33:08;34.00;;;23.00;;
84050;SDS011;74137;50.136;19.040;2024-03-08T10:35:37;35.00;;;24.40;;
84050;SDS011;74137;50.136;19.040;2024-03-08T10:38:06;34.10;;;22.60;;
84050;SDS011;74137;50.136;19.040;2024-03-08T10:40:41;31.60;;;20.20;;
84050;SDS011;74137;50.136;19.040;2024-03-08T10:43:12;32.80;;;23.50;;
84050;SDS011;74137;50.136;19.040;2024-03-08T10:45:59;29.40;;;20.30;;
84050;SDS011;74137;50.136;19.040;2024-03-08T10:48:40;28.60;;;18.30;;
84050;SDS011;74137;50.136;19.040;2024-03-08T10:51:12;32.70;;;21.30;;
84050;SDS011;74137;50.136;19.040;2024-03-08T10:53:43;31.90;;;21.70;;
84050;SDS011;74137;50.136;19.040;2024-03-08T10:56:14;36.70;;;22.30;;
84050;SDS011;74137;50.136;19.040;2024-03-08T10:58:43;31.00;;;19.70;;
84050;SDS011;74137;50.136;19.040;2024-03-08T11:01:15;33.50;;;22.00;;
84050;SDS011;74137;50.136;19.040;2024-03-08T11:03:45;36.70;;;22.80;;
84050;SDS011;74137;50.136;19.040;2024-03-08T11:12:16;34.00;;;19.50;;
84050;SDS011;74137;50.136;19.040;2024-03-08T11:15:01;36.60;;;22.70;;
84050;SDS011;74137;50.136;19.040;2024-03-08T11:20:10;35.50;;;24.10;;
84050;SDS011;74137;50.136;19.040;2024-03-08T11:22:50;37.80;;;24.40;;
84050;SDS011;74137;50.136;19.040;2024-03-08T11:25:30;35.60;;;22.90;;
84050;SDS011;74137;50.136;19.040;2024-03-08T11:28:17;37.60;;;24.30;;
84050;SDS011;74137;50.136;19.040;2024-03-08T11:33:32;39.60;;;26.00;;
84050;SDS011;74137;50.136;19.040;2024-03-08T11:36:13;39.10;;;23.30;;
84050;SDS011;74137;50.136;19.040;2024-03-08T11:38:50;38.80;;;24.80;;
84050;SDS011;74137;50.136;19.040;2024-03-08T11:41:21;37.70;;;24.90;;
84050;SDS011;74137;50.136;19.040;2024-03-08T11:44:04;40.10;;;25.90;;
84050;SDS011;74137;50.136;19.040;2024-03-08T11:46:34;41.30;;;27.00;;
84050;SDS011;74137;50.136;19.040;2024-03-08T11:49:02;38.90;;;24.80;;
84050;SDS011;74137;50.136;19.040;2024-03-08T11:51:31;40.80;;;25.70;;
84050;SDS011;74137;50.136;19.040;2024-03-08T11:54:00;42.20;;;25.30;;
84050;SDS011;74137;50.136;19.040;2024-03-08T11:56:29;40.10;;;25.70;;
84050;SDS011;74137;50.136;19.040;2024-03-08T11:58:57;38.10;;;24.10;;
84050;SDS011;74137;50.136;19.040;2024-03-08T12:01:26;40.00;;;25.00;;
84050;SDS011;74137;50.136;19.040;2024-03-08T12:03:56;45.80;;;27.90;;
84050;SDS011;74137;50.136;19.040;2024-03-08T12:06:35;37.80;;;24.80;;
84050;SDS011;74137;50.136;19.040;2024-03-08T12:09:09;38.40;;;25.50;;
84050;SDS011;74137;50.136;19.040;2024-03-08T12:11:41;39.60;;;26.30;;
84050;SDS011;74137;50.136;19.040;2024-03-08T12:14:11;43.60;;;28.30;;
84050;SDS011;74137;50.136;19.040;2024-03-08T12:16:39;45.70;;;27.60;;
84050;SDS011;74137;50.136;19.040;2024-03-08T12:19:10;41.60;;;25.90;;
84050;SDS011;74137;50.136;19.040;2024-03-08T12:21:39;39.40;;;26.60;;
84050;SDS011;74137;50.136;19.040;2024-03-08T12:24:16;33.80;;;23.80;;
84050;SDS011;74137;50.136;19.040;2024-03-08T12:26:47;39.80;;;26.10;;
84050;SDS011;74137;50.136;19.040;2024-03-08T12:29:24;38.90;;;24.90;;
84050;SDS011;74137;50.136;19.040;2024-03-08T12:31:55;34.80;;;22.60;;
84050;SDS011;74137;50.136;19.040;2024-03-08T12:34:29;37.60;;;24.10;;
84050;SDS011;74137;50.136;19.040;2024-03-08T12:37:00;35.30;;;24.60;;
84050;SDS011;74137;50.136;19.040;2024-03-08T12:39:29;32.80;;;22.70;;
84050;SDS011;74137;50.136;19.040;2024-03-08T12:41:58;34.40;;;22.80;;
84050;SDS011;74137;50.136;19.040;2024-03-08T12:46:57;37.30;;;24.00;;
84050;SDS011;74137;50.136;19.040;2024-03-08T12:49:28;34.50;;;22.70;;
84050;SDS011;74137;50.136;19.040;2024-03-08T12:52:08;33.40;;;23.40;;
84050;SDS011;74137;50.136;19.040;2024-03-08T12:55:04;32.50;;;22.60;;
84050;SDS011;74137;50.136;19.040;2024-03-08T12:57:35;39.80;;;25.20;;
84050;SDS011;74137;50.136;19.040;2024-03-08T13:00:06;33.40;;;22.60;;
84050;SDS011;74137;50.136;19.040;2024-03-08T13:02:41;31.90;;;22.40;;
84050;SDS011;74137;50.136;19.040;2024-03-08T13:05:10;37.70;;;25.20;;
84050;SDS011;74137;50.136;19.040;2024-03-08T13:07:38;33.90;;;23.70;;
84050;SDS011;74137;50.136;19.040;2024-03-08T13:10:07;32.50;;;23.20;;
84050;SDS011;74137;50.136;19.040;2024-03-08T14:00:44;30.20;;;22.10;;
84050;SDS011;74137;50.136;19.040;2024-03-08T14:04:40;34.00;;;22.20;;
84050;SDS011;74137;50.136;19.040;2024-03-08T14:17:09;31.90;;;21.50;;
84050;SDS011;74137;50.136;19.040;2024-03-08T14:25:11;34.10;;;21.10;;
84050;SDS011;74137;50.136;19.040;2024-03-08T14:33:27;30.40;;;20.80;;
84050;SDS011;74137;50.136;19.040;2024-03-08T14:42:01;29.20;;;20.30;;
84050;SDS011;74137;50.136;19.040;2024-03-08T14:49:02;33.40;;;21.20;;
84050;SDS011;74137;50.136;19.040;2024-03-08T15:29:29;37.70;;;26.10;;
84050;SDS011;74137;50.136;19.040;2024-03-08T15:35:44;30.80;;;21.40;;
84050;SDS011;74137;50.136;19.040;2024-03-08T15:39:07;31.60;;;20.80;;
84050;SDS011;74137;50.136;19.040;2024-03-08T15:42:18;32.90;;;21.80;;
84050;SDS011;74137;50.136;19.040;2024-03-08T15:44:47;31.20;;;20.40;;
84050;SDS011;74137;50.136;19.040;2024-03-08T15:47:21;34.20;;;22.30;;
84050;SDS011;74137;50.136;19.040;2024-03-08T15:49:50;33.90;;;21.70;;
84050;SDS011;74137;50.136;19.040;2024-03-08T15:52:23;30.50;;;19.40;;
84050;SDS011;74137;50.136;19.040;2024-03-08T15:54:56;32.60;;;21.80;;
84050;SDS011;74137;50.136;19.040;2024-03-08T15:57:25;31.60;;;22.20;;
84050;SDS011;74137;50.136;19.040;2024-03-08T15:59:55;34.30;;;21.80;;
84050;SDS011;74137;50.136;19.040;2024-03-08T16:02:28;33.60;;;20.80;;
84050;SDS011;74137;50.136;19.040;2024-03-08T16:05:01;32.60;;;21.20;;
84050;SDS011;74137;50.136;19.040;2024-03-08T16:07:30;34.40;;;19.80;;
84050;SDS011;74137;50.136;19.040;2024-03-08T16:09:59;33.80;;;22.00;;
84050;SDS011;74137;50.136;19.040;2024-03-08T16:12:37;35.60;;;23.10;;
84050;SDS011;74137;50.136;19.040;2024-03-08T16:15:08;34.40;;;22.30;;
84050;SDS011;74137;50.136;19.040;2024-03-08T16:17:40;39.70;;;24.00;;
84050;SDS011;74137;50.136;19.040;2024-03-08T16:20:14;39.20;;;24.30;;
84050;SDS011;74137;50.136;19.040;2024-03-08T16:22:44;37.20;;;23.50;;
84050;SDS011;74137;50.136;19.040;2024-03-08T16:25:20;33.90;;;22.30;;
84050;SDS011;74137;50.136;19.040;2024-03-08T16:27:51;39.60;;;24.00;;
84050;SDS011;74137;50.136;19.040;2024-03-08T16:30:19;36.00;;;22.80;;
84050;SDS011;74137;50.136;19.040;2024-03-08T16:32:51;42.20;;;25.10;;
84050;SDS011;74137;50.136;19.040;2024-03-08T16:35:25;41.10;;;25.40;;
84050;SDS011;74137;50.136;19.040;2024-03-08T16:37:58;30.10;;;19.10;;
84050;SDS011;74137;50.136;19.040;2024-03-08T16:40:26;34.60;;;23.20;;
84050;SDS011;74137;50.136;19.040;2024-03-08T16:42:58;37.00;;;24.00;;
84050;SDS011;74137;50.136;19.040;2024-03-08T16:45:29;38.50;;;23.20;;
84050;SDS011;74137;50.136;19.040;2024-03-08T16:47:57;39.90;;;24.30;;
84050;SDS011;74137;50.136;19.040;2024-03-08T16:50:28;32.40;;;21.50;;
84050;SDS011;74137;50.136;19.040;2024-03-08T16:52:59;34.00;;;21.80;;
84050;SDS011;74137;50.136;19.040;2024-03-08T16:55:31;35.70;;;23.10;;
84050;SDS011;74137;50.136;19.040;2024-03-08T16:58:01;38.90;;;24.20;;
84050;SDS011;74137;50.136;19.040;2024-03-08T17:00:35;37.80;;;22.90;;
84050;SDS011;74137;50.136;19.040;2024-03-08T17:03:04;37.40;;;22.20;;
84050;SDS011;74137;50.136;19.040;2024-03-08T17:05:35;38.20;;;24.00;;
84050;SDS011;74137;50.136;19.040;2024-03-08T17:08:05;39.80;;;24.50;;
84050;SDS011;74137;50.136;19.040;2024-03-08T17:10:40;41.70;;;27.10;;
84050;SDS011;74137;50.136;19.040;2024-03-08T17:13:14;48.70;;;29.90;;
84050;SDS011;74137;50.136;19.040;2024-03-08T17:15:49;50.90;;;30.70;;
84050;SDS011;74137;50.136;19.040;2024-03-08T17:18:21;39.60;;;24.30;;
84050;SDS011;74137;50.136;19.040;2024-03-08T17:20:51;36.10;;;22.40;;
84050;SDS011;74137;50.136;19.040;2024-03-08T17:23:19;39.80;;;24.30;;
84050;SDS011;74137;50.136;19.040;2024-03-08T17:25:50;38.10;;;23.10;;
84050;SDS011;74137;50.136;19.040;2024-03-08T17:28:23;40.40;;;24.20;;
84050;SDS011;74137;50.136;19.040;2024-03-08T17:30:55;43.50;;;26.40;;
84050;SDS011;74137;50.136;19.040;2024-03-08T17:33:24;38.50;;;24.60;;
84050;SDS011;74137;50.136;19.040;2024-03-08T17:35:53;39.20;;;23.50;;
84050;SDS011;74137;50.136;19.040;2024-03-08T17:38:29;39.00;;;24.80;;
84050;SDS011;74137;50.136;19.040;2024-03-08T17:41:00;43.10;;;26.60;;
84050;SDS011;74137;50.136;19.040;2024-03-08T17:43:32;44.00;;;27.90;;
84050;SDS011;74137;50.136;19.040;2024-03-08T17:46:00;45.50;;;28.40;;
84050;SDS011;74137;50.136;19.040;2024-03-08T17:48:34;49.20;;;30.90;;
84050;SDS011;74137;50.136;19.040;2024-03-08T17:51:03;47.80;;;27.10;;
84050;SDS011;74137;50.136;19.040;2024-03-08T17:53:32;39.20;;;22.80;;
84050;SDS011;74137;50.136;19.040;2024-03-08T17:56:02;40.40;;;24.80;;
84050;SDS011;74137;50.136;19.040;2024-03-08T17:58:36;38.40;;;22.70;;
84050;SDS011;74137;50.136;19.040;2024-03-08T18:01:04;36.90;;;21.80;;
84050;SDS011;74137;50.136;19.040;2024-03-08T18:03:40;37.70;;;22.20;;
84050;SDS011;74137;50.136;19.040;2024-03-08T18:06:08;36.50;;;21.90;;
84050;SDS011;74137;50.136;19.040;2024-03-08T18:08:37;39.80;;;22.90;;
84050;SDS011;74137;50.136;19.040;2024-03-08T18:11:05;35.40;;;21.50;;
84050;SDS011;74137;50.136;19.040;2024-03-08T18:13:36;36.70;;;23.20;;
84050;SDS011;74137;50.136;19.040;2024-03-08T18:16:05;36.50;;;22.00;;
84050;SDS011;74137;50.136;19.040;2024-03-08T18:18:35;37.60;;;21.40;;
84050;SDS011;74137;50.136;19.040;2024-03-08T18:21:05;39.10;;;22.10;;
84050;SDS011;74137;50.136;19.040;2024-03-08T18:23:33;34.20;;;20.20;;
84050;SDS011;74137;50.136;19.040;2024-03-08T18:26:02;40.40;;;23.00;;
84050;SDS011;74137;50.136;19.040;2024-03-08T18:28:32;40.80;;;22.90;;
84050;SDS011;74137;50.136;19.040;2024-03-08T18:31:01;38.80;;;22.90;;
84050;SDS011;74137;50.136;19.040;2024-03-08T18:33:37;38.10;;;21.90;;
84050;SDS011;74137;50.136;19.040;2024-03-08T18:36:07;34.40;;;20.80;;
84050;SDS011;74137;50.136;19.040;2024-03-08T18:38:39;37.10;;;22.00;;
84050;SDS011;74137;50.136;19.040;2024-03-08T18:41:08;35.80;;;20.80;;
84050;SDS011;74137;50.136;19.040;2024-03-08T18:43:36;35.70;;;20.80;;
84050;SDS011;74137;50.136;19.040;2024-03-08T18:46:07;38.10;;;21.90;;
84050;SDS011;74137;50.136;19.040;2024-03-08T18:48:39;34.40;;;19.80;;
84050;SDS011;74137;50.136;19.040;2024-03-08T18:51:09;40.30;;;23.00;;
84050;SDS011;74137;50.136;19.040;2024-03-08T18:53:38;40.70;;;24.30;;
84050;SDS011;74137;50.136;19.040;2024-03-08T18:56:09;40.20;;;23.00;;
84050;SDS011;74137;50.136;19.040;2024-03-08T18:58:38;39.70;;;22.70;;
84050;SDS011;74137;50.136;19.040;2024-03-08T19:01:13;38.90;;;22.30;;
84050;SDS011;74137;50.136;19.040;2024-03-08T19:03:44;39.70;;;22.50;;
84050;SDS011;74137;50.136;19.040;2024-03-08T19:06:14;40.20;;;22.70;;
84050;SDS011;74137;50.136;19.040;2024-03-08T19:08:46;38.20;;;23.00;;
84050;SDS011;74137;50.136;19.040;2024-03-08T19:11:19;41.30;;;24.40;;
84050;SDS011;74137;50.136;19.040;2024-03-08T19:13:50;47.40;;;24.70;;
84050;SDS011;74137;50.136;19.040;2024-03-08T19:16:19;41.50;;;22.70;;
84050;SDS011;74137;50.136;19.040;2024-03-08T19:18:48;45.60;;;25.70;;
84050;SDS011;74137;50.136;19.040;2024-03-08T19:21:21;47.90;;;26.30;;
84050;SDS011;74137;50.136;19.040;2024-03-08T19:23:52;46.40;;;26.00;;
84050;SDS011;74137;50.136;19.040;2024-03-08T19:26:21;43.30;;;25.00;;
84050;SDS011;74137;50.136;19.040;2024-03-08T19:28:51;46.80;;;26.30;;
84050;SDS011;74137;50.136;19.040;2024-03-08T19:31:20;44.00;;;24.80;;
84050;SDS011;74137;50.136;19.040;2024-03-08T19:33:48;40.80;;;24.00;;
84050;SDS011;74137;50.136;19.040;2024-03-08T19:36:17;47.90;;;26.10;;
84050;SDS011;74137;50.136;19.040;2024-03-08T19:38:47;45.90;;;26.80;;
84050;SDS011;74137;50.136;19.040;2024-03-08T19:41:25;47.10;;;25.70;;
84050;SDS011;74137;50.136;19.040;2024-03-08T19:44:05;47.30;;;26.20;;
84050;SDS011;74137;50.136;19.040;2024-03-08T19:46:40;46.70;;;26.50;;
84050;SDS011;74137;50.136;19.040;2024-03-08T19:49:11;47.00;;;25.80;;
84050;SDS011;74137;50.136;19.040;2024-03-08T19:51:40;47.30;;;26.70;;
84050;SDS011;74137;50.136;19.040;2024-03-08T19:54:08;45.40;;;25.50;;
84050;SDS011;74137;50.136;19.040;2024-03-08T19:56:37;44.20;;;24.30;;
84050;SDS011;74137;50.136;19.040;2024-03-08T19:59:15;42.20;;;24.20;;
84050;SDS011;74137;50.136;19.040;2024-03-08T20:01:46;46.40;;;25.80;;
84050;SDS011;74137;50.136;19.040;2024-03-08T20:04:15;43.60;;;25.70;;
84050;SDS011;74137;50.136;19.040;2024-03-08T20:06:46;41.10;;;23.40;;
84050;SDS011;74137;50.136;19.040;2024-03-08T20:09:15;45.20;;;24.50;;
84050;SDS011;74137;50.136;19.040;2024-03-08T20:11:49;43.00;;;24.60;;
84050;SDS011;74137;50.136;19.040;2024-03-08T20:14:26;45.80;;;26.60;;
84050;SDS011;74137;50.136;19.040;2024-03-08T20:16:57;39.90;;;22.20;;
84050;SDS011;74137;50.136;19.040;2024-03-08T20:19:26;50.40;;;29.20;;
84050;SDS011;74137;50.136;19.040;2024-03-08T20:21:56;47.40;;;26.10;;
84050;SDS011;74137;50.136;19.040;2024-03-08T20:24:27;46.00;;;25.50;;
84050;SDS011;74137;50.136;19.040;2024-03-08T20:26:57;46.70;;;26.70;;
84050;SDS011;74137;50.136;19.040;2024-03-08T20:29:28;46.10;;;26.70;;
84050;SDS011;74137;50.136;19.040;2024-03-08T20:32:02;48.40;;;25.50;;
84050;SDS011;74137;50.136;19.040;2024-03-08T20:39:36;44.00;;;23.40;;
84050;SDS011;74137;50.136;19.040;2024-03-08T20:42:07;43.40;;;24.50;;
84050;SDS011;74137;50.136;19.040;2024-03-08T20:44:36;45.40;;;24.60;;
84050;SDS011;74137;50.136;19.040;2024-03-08T20:47:04;45.40;;;24.40;;